createdAt,value
2017-11-15T00:01:26.829Z,7.84
2017-11-15T00:02:53.225Z,7.83
2017-11-15T00:04:21.451Z,7.82
2017-11-15T00:05:47.552Z,7.82
2017-11-15T00:07:15.116Z,7.81
2017-11-15T00:08:42.461Z,7.80
2017-11-15T00:10:10.875Z,7.80
2017-11-15T00:11:38.276Z,7.82
2017-11-15T00:13:05.581Z,7.83
2017-11-15T00:14:32.887Z,7.83
2017-11-15T00:15:59.254Z,7.84
2017-11-15T00:17:27.607Z,7.84
2017-11-15T00:18:54.989Z,7.83
2017-11-15T00:20:21.375Z,7.85
2017-11-15T00:21:49.788Z,7.88
2017-11-15T00:23:17.090Z,7.90
2017-11-15T00:24:43.349Z,7.94
2017-11-15T00:26:10.541Z,7.95
2017-11-15T00:27:38.890Z,7.97
2017-11-15T00:29:05.062Z,7.98
2017-11-15T00:30:33.318Z,8.01
2017-11-15T00:31:59.736Z,8.03
2017-11-15T00:33:27.199Z,8.04
2017-11-15T00:34:54.475Z,8.06
2017-11-15T00:36:22.898Z,8.08
2017-11-15T00:37:50.317Z,8.08
2017-11-15T00:39:17.560Z,8.05
2017-11-15T00:40:44.006Z,8.02
2017-11-15T00:42:12.068Z,7.98
2017-11-15T00:43:38.387Z,7.95
2017-11-15T00:45:05.770Z,7.94
2017-11-15T00:46:33.264Z,7.93
2017-11-15T00:48:01.582Z,7.91
2017-11-15T00:49:29.014Z,7.91
2017-11-15T00:50:56.388Z,7.93
2017-11-15T00:52:23.695Z,7.95
2017-11-15T00:53:50.974Z,7.96
2017-11-15T00:55:17.214Z,7.94
2017-11-15T00:56:45.670Z,7.95
2017-11-15T00:58:12.879Z,7.95
2017-11-15T00:59:39.292Z,7.93
2017-11-15T01:01:07.557Z,7.93
2017-11-15T01:02:34.940Z,7.92
2017-11-15T01:04:02.287Z,7.91
2017-11-15T01:05:31.647Z,7.93
2017-11-15T01:06:55.943Z,7.94
2017-11-15T01:08:23.087Z,7.96
2017-11-15T01:09:50.352Z,7.95
2017-11-15T01:11:18.626Z,7.97
2017-11-15T01:12:46.002Z,7.99
2017-11-15T01:14:13.253Z,8.00
2017-11-15T01:15:39.541Z,8.01
2017-11-15T01:17:06.946Z,8.03
2017-11-15T01:18:34.275Z,8.04
2017-11-15T01:20:02.532Z,8.02
2017-11-15T01:21:29.929Z,8.01
2017-11-15T01:22:55.872Z,7.97
2017-11-15T01:24:23.221Z,7.96
2017-11-15T01:25:51.508Z,7.97
2017-11-15T01:27:17.490Z,7.98
2017-11-15T01:28:45.887Z,8.00
2017-11-15T01:30:12.166Z,8.02
2017-11-15T01:31:40.501Z,8.03
2017-11-15T01:33:06.666Z,8.05
2017-11-15T01:34:35.035Z,8.06
2017-11-15T01:36:00.885Z,8.07
2017-11-15T01:37:29.046Z,8.07
2017-11-15T01:38:56.403Z,8.08
2017-11-15T01:40:23.465Z,8.07
2017-11-15T01:41:49.827Z,8.07
2017-11-15T01:43:17.955Z,8.09
2017-11-15T01:44:45.370Z,8.10
2017-11-15T01:46:12.689Z,8.12
2017-11-15T01:47:39.646Z,8.13
2017-11-15T01:49:06.111Z,8.14
2017-11-15T01:50:34.216Z,8.15
2017-11-15T01:52:01.560Z,8.16
2017-11-15T01:53:27.872Z,8.16
2017-11-15T01:54:56.159Z,8.17
2017-11-15T01:56:22.379Z,8.16
2017-11-15T01:57:50.505Z,8.17
2017-11-15T01:59:16.497Z,8.17
2017-11-15T02:00:43.690Z,8.15
2017-11-15T02:02:10.758Z,8.13
2017-11-15T02:03:39.128Z,8.12
2017-11-15T02:05:06.431Z,8.12
2017-11-15T02:06:32.745Z,8.12
2017-11-15T02:08:00.887Z,8.13
2017-11-15T02:09:28.219Z,8.11
2017-11-15T02:10:55.489Z,8.12
2017-11-15T02:12:21.930Z,8.13
2017-11-15T02:13:50.102Z,8.12
2017-11-15T02:15:16.173Z,8.10
2017-11-15T02:16:43.463Z,8.09
2017-11-15T02:18:11.734Z,8.10
2017-11-15T02:19:39.098Z,8.12
2017-11-15T02:21:06.375Z,8.13
2017-11-15T02:22:33.674Z,8.13
2017-11-15T02:24:00.907Z,8.14
2017-11-15T02:25:27.106Z,8.15
2017-11-15T02:26:54.354Z,8.16
2017-11-15T02:28:22.770Z,8.17
2017-11-15T02:29:49.182Z,8.18
2017-11-15T02:31:16.498Z,8.19
2017-11-15T02:32:44.950Z,8.20
2017-11-15T02:34:11.396Z,8.21
2017-11-15T02:35:38.711Z,8.15
2017-11-15T02:37:06.630Z,8.11
2017-11-15T02:38:34.156Z,8.11
2017-11-15T02:40:00.518Z,8.12
2017-11-15T02:41:28.049Z,8.14
2017-11-15T02:42:55.489Z,8.14
2017-11-15T02:44:22.792Z,8.16
2017-11-15T02:45:49.999Z,8.17
2017-11-15T02:47:18.438Z,8.18
2017-11-15T02:48:45.576Z,8.18
2017-11-15T02:50:12.822Z,8.19
2017-11-15T02:51:39.801Z,8.19
2017-11-15T02:53:07.193Z,8.19
2017-11-15T02:54:34.586Z,8.19
2017-11-15T02:56:00.808Z,8.18
2017-11-15T02:57:28.986Z,8.18
2017-11-15T02:58:55.395Z,8.18
2017-11-15T03:00:22.473Z,8.18
2017-11-15T03:01:50.816Z,8.17
2017-11-15T03:03:16.999Z,8.17
2017-11-15T03:04:44.161Z,8.17
2017-11-15T03:06:12.451Z,8.17
2017-11-15T03:07:38.826Z,8.17
2017-11-15T03:09:07.215Z,8.17
2017-11-15T03:10:33.577Z,8.17
2017-11-15T03:12:01.606Z,8.17
2017-11-15T03:13:27.973Z,8.17
2017-11-15T03:14:55.144Z,8.18
2017-11-15T03:16:23.591Z,8.17
2017-11-15T03:17:49.444Z,8.17
2017-11-15T03:19:17.679Z,8.17
2017-11-15T03:20:43.764Z,8.16
2017-11-15T03:22:11.971Z,8.16
2017-11-15T03:23:38.389Z,8.16
2017-11-15T03:25:05.727Z,8.16
2017-11-15T03:26:33.924Z,8.16
2017-11-15T03:28:00.174Z,8.15
2017-11-15T03:29:27.321Z,8.15
2017-11-15T03:30:54.745Z,8.15
2017-11-15T03:32:23.036Z,8.14
2017-11-15T03:33:49.497Z,8.13
2017-11-15T03:35:16.702Z,8.13
2017-11-15T03:36:44.201Z,8.13
2017-11-15T03:38:12.288Z,8.12
2017-11-15T03:39:39.849Z,8.13
2017-11-15T03:41:05.784Z,8.12
2017-11-15T03:42:33.967Z,8.11
2017-11-15T03:44:01.092Z,8.10
2017-11-15T03:45:27.237Z,8.09
2017-11-15T03:46:55.603Z,8.08
2017-11-15T03:48:21.910Z,8.08
2017-11-15T03:49:49.071Z,8.07
2017-11-15T03:51:16.422Z,8.06
2017-11-15T03:52:44.623Z,8.04
2017-11-15T03:54:10.853Z,8.03
2017-11-15T03:55:38.140Z,7.98
2017-11-15T03:57:06.316Z,7.97
2017-11-15T03:58:33.500Z,7.97
2017-11-15T03:59:59.733Z,7.93
2017-11-15T04:01:27.176Z,7.88
2017-11-15T04:02:55.600Z,7.83
2017-11-15T04:04:22.906Z,7.81
2017-11-15T04:05:49.343Z,7.82
2017-11-15T04:07:17.553Z,7.81
2017-11-15T04:08:44.815Z,7.81
2017-11-15T04:10:11.040Z,7.78
2017-11-15T04:11:39.278Z,7.80
2017-11-15T04:13:05.661Z,7.81
2017-11-15T04:14:32.976Z,7.79
2017-11-15T04:16:01.381Z,7.80
2017-11-15T04:17:27.761Z,7.79
2017-11-15T04:18:56.099Z,7.77
2017-11-15T04:20:22.435Z,7.78
2017-11-15T04:21:50.616Z,7.77
2017-11-15T04:23:17.976Z,7.77
2017-11-15T04:24:44.278Z,7.76
2017-11-15T04:26:11.610Z,7.75
2017-11-15T04:27:39.992Z,7.74
2017-11-15T04:29:07.414Z,7.73
2017-11-15T04:30:34.539Z,7.71
2017-11-15T04:32:00.837Z,7.69
2017-11-15T04:33:28.046Z,7.69
2017-11-15T04:34:55.410Z,7.71
2017-11-15T04:36:23.520Z,7.70
2017-11-15T04:37:50.781Z,7.70
2017-11-15T04:39:18.099Z,7.70
2017-11-15T04:40:44.304Z,7.70
2017-11-15T04:42:11.601Z,7.72
2017-11-15T04:43:38.879Z,7.74
2017-11-15T04:45:07.161Z,7.75
2017-11-15T04:46:34.547Z,7.75
2017-11-15T04:48:01.807Z,7.75
2017-11-15T04:49:28.995Z,7.73
2017-11-15T04:50:56.304Z,7.73
2017-11-15T04:52:22.432Z,7.73
2017-11-15T04:53:49.671Z,7.74
2017-11-15T04:55:16.941Z,7.73
2017-11-15T04:56:45.361Z,7.73
2017-11-15T04:58:11.505Z,7.73
2017-11-15T04:59:39.723Z,7.73
2017-11-15T05:01:07.002Z,7.73
2017-11-15T05:02:34.222Z,7.73
2017-11-15T05:04:00.512Z,7.73
2017-11-15T05:05:27.849Z,7.73
2017-11-15T05:06:55.520Z,7.75
2017-11-15T05:08:23.863Z,7.75
2017-11-15T05:09:50.070Z,7.74
2017-11-15T05:11:18.422Z,7.74
2017-11-15T05:12:45.577Z,7.74
2017-11-15T05:14:12.875Z,7.74
2017-11-15T05:15:39.082Z,7.75
2017-11-15T05:17:07.566Z,7.76
2017-11-15T05:18:33.940Z,7.77
2017-11-15T05:20:02.347Z,7.77
2017-11-15T05:21:29.598Z,7.77
2017-11-15T05:22:57.009Z,7.77
2017-11-15T05:24:23.253Z,7.78
2017-11-15T05:25:51.685Z,7.78
2017-11-15T05:27:18.950Z,7.78
2017-11-15T05:28:44.997Z,7.78
2017-11-15T05:30:12.243Z,7.80
2017-11-15T05:31:39.553Z,7.80
2017-11-15T05:33:06.954Z,7.81
2017-11-15T05:34:35.252Z,7.83
2017-11-15T05:36:01.333Z,7.84
2017-11-15T05:37:29.687Z,7.82
2017-11-15T05:38:55.723Z,7.82
2017-11-15T05:40:22.882Z,7.82
2017-11-15T05:41:51.191Z,7.81
2017-11-15T05:43:18.596Z,7.83
2017-11-15T05:44:45.643Z,7.87
2017-11-15T05:46:12.863Z,7.90
2017-11-15T05:47:39.065Z,7.91
2017-11-15T05:49:06.346Z,7.94
2017-11-15T05:50:33.821Z,7.97
2017-11-15T05:52:02.161Z,7.99
2017-11-15T05:53:29.383Z,8.02
2017-11-15T05:54:56.869Z,8.05
2017-11-15T05:56:23.085Z,8.07
2017-11-15T05:57:50.341Z,8.09
2017-11-15T05:59:17.688Z,8.11
2017-11-15T06:00:44.979Z,8.13
2017-11-15T06:02:13.234Z,8.14
2017-11-15T06:03:40.451Z,8.16
2017-11-15T06:05:06.681Z,8.17
2017-11-15T06:06:35.161Z,8.17
2017-11-15T06:08:01.280Z,8.18
2017-11-15T06:09:28.434Z,8.18
2017-11-15T06:10:56.721Z,8.19
2017-11-15T06:12:24.203Z,8.20
2017-11-15T06:13:50.504Z,8.21
2017-11-15T06:15:17.863Z,8.22
2017-11-15T06:16:46.213Z,8.22
2017-11-15T06:18:12.901Z,8.23
2017-11-15T06:19:39.290Z,8.24
2017-11-15T06:21:07.712Z,8.24
2017-11-15T06:22:33.961Z,8.25
2017-11-15T06:24:02.067Z,8.25
2017-11-15T06:25:28.526Z,8.26
2017-11-15T06:26:56.634Z,8.26
2017-11-15T06:28:23.064Z,8.26
2017-11-15T06:29:50.461Z,8.27
2017-11-15T06:31:18.594Z,8.27
2017-11-15T06:32:45.662Z,8.26
2017-11-15T06:34:11.847Z,8.26
2017-11-15T06:35:39.225Z,8.26
2017-11-15T06:37:06.547Z,8.26
2017-11-15T06:38:34.929Z,8.26
2017-11-15T06:40:01.405Z,8.26
2017-11-15T06:41:28.764Z,8.27
2017-11-15T06:42:56.787Z,8.26
2017-11-15T06:44:24.060Z,8.26
2017-11-15T06:45:51.161Z,8.26
2017-11-15T06:47:17.523Z,8.26
2017-11-15T06:48:45.675Z,8.26
2017-11-15T06:50:12.990Z,8.25
2017-11-15T06:51:39.287Z,8.25
2017-11-15T06:53:07.515Z,8.25
2017-11-15T06:54:34.797Z,8.25
2017-11-15T06:56:01.277Z,8.25
2017-11-15T06:57:29.707Z,8.24
2017-11-15T06:58:55.979Z,8.24
2017-11-15T07:00:24.325Z,8.24
2017-11-15T07:01:50.664Z,8.24
2017-11-15T07:03:17.881Z,8.24
2017-11-15T07:04:46.218Z,8.23
2017-11-15T07:06:12.343Z,8.24
2017-11-15T07:07:39.925Z,8.24
2017-11-15T07:09:07.137Z,8.24
2017-11-15T07:10:35.469Z,8.24
2017-11-15T07:12:02.831Z,8.24
2017-11-15T07:13:29.081Z,8.24
2017-11-15T07:14:57.535Z,8.24
2017-11-15T07:16:23.840Z,8.24
2017-11-15T07:17:51.128Z,8.25
2017-11-15T07:19:18.347Z,8.25
2017-11-15T07:20:45.648Z,8.24
2017-11-15T07:22:13.873Z,8.24
2017-11-15T07:23:40.197Z,8.25
2017-11-15T07:25:07.600Z,8.25
2017-11-15T07:26:34.923Z,8.25
2017-11-15T07:28:02.325Z,8.25
2017-11-15T07:29:30.458Z,8.26
2017-11-15T07:30:57.733Z,8.26
2017-11-15T07:32:24.013Z,8.26
2017-11-15T07:33:52.283Z,8.26
2017-11-15T07:35:18.671Z,8.27
2017-11-15T07:36:46.024Z,8.27
2017-11-15T07:38:14.302Z,8.27
2017-11-15T07:39:40.984Z,8.28
2017-11-15T07:41:07.225Z,8.28
2017-11-15T07:42:35.438Z,8.29
2017-11-15T07:44:01.814Z,8.30
2017-11-15T07:45:35.112Z,8.30
2017-11-15T07:46:56.036Z,8.31
2017-11-15T07:48:24.299Z,8.32
2017-11-15T07:49:50.587Z,8.32
2017-11-15T07:51:18.022Z,8.33
2017-11-15T07:52:45.226Z,8.33
2017-11-15T07:54:13.178Z,8.34
2017-11-15T07:55:39.536Z,8.34
2017-11-15T07:57:06.885Z,8.35
2017-11-15T07:58:34.347Z,8.35
2017-11-15T08:00:01.609Z,8.35
2017-11-15T08:01:28.895Z,8.36
2017-11-15T08:02:57.107Z,8.37
2017-11-15T08:04:24.400Z,8.38
2017-11-15T08:05:51.753Z,8.38
2017-11-15T08:07:18.193Z,8.39
2017-11-15T11:10:16.469Z,8.84
2017-11-15T11:11:44.838Z,8.86
2017-11-15T11:13:10.826Z,8.90
2017-11-15T11:14:38.980Z,8.93
2017-11-15T11:16:05.364Z,8.94
2017-11-15T11:17:32.739Z,8.98
2017-11-15T11:19:01.102Z,9.01
2017-11-15T11:20:28.491Z,9.04
2017-11-15T11:21:54.863Z,9.06
2017-11-15T11:23:22.235Z,9.09
2017-11-15T11:24:49.621Z,9.10
2017-11-15T11:26:17.871Z,9.10
2017-11-15T11:27:45.295Z,9.12
2017-11-15T11:29:11.505Z,9.15
2017-11-15T11:30:39.721Z,9.18
2017-11-15T11:32:05.941Z,9.20
2017-11-15T11:33:33.297Z,9.22
2017-11-15T11:35:00.716Z,9.21
2017-11-15T11:36:27.961Z,9.22
2017-11-15T11:37:55.288Z,9.25
2017-11-15T11:39:22.725Z,9.27
2017-11-15T11:40:50.812Z,9.29
2017-11-15T11:42:18.061Z,9.32
2017-11-15T11:43:45.542Z,9.33
2017-11-15T11:45:11.614Z,9.33
2017-11-15T11:46:40.048Z,9.33
2017-11-15T11:48:07.320Z,9.32
2017-11-15T11:49:33.771Z,9.30
2017-11-15T11:51:02.001Z,9.30
2017-11-15T11:52:28.451Z,9.31
2017-11-15T11:53:56.854Z,9.32
2017-11-15T11:55:24.303Z,9.34
2017-11-15T11:56:50.670Z,9.35
2017-11-15T11:58:17.976Z,9.36
2017-11-15T11:59:45.205Z,9.36
2017-11-15T12:01:13.184Z,9.36
2017-11-15T12:02:40.342Z,9.36
2017-11-15T12:04:06.541Z,9.39
2017-11-15T12:05:34.900Z,9.40
2017-11-15T12:07:02.183Z,9.39
2017-11-15T12:08:28.546Z,9.41
2017-11-15T12:09:55.919Z,9.43
2017-11-15T12:11:23.046Z,9.44
2017-11-15T12:12:50.501Z,9.45
2017-11-15T12:14:17.933Z,9.46
2017-11-15T12:15:45.270Z,9.48
2017-11-15T12:17:12.365Z,9.51
2017-11-15T12:18:39.587Z,9.53
2017-11-15T12:20:06.995Z,9.55
2017-11-15T12:21:34.113Z,9.58
2017-11-15T12:23:01.575Z,9.60
2017-11-15T12:24:28.808Z,9.62
2017-11-15T12:25:55.815Z,9.66
2017-11-15T12:27:22.964Z,9.70
2017-11-15T12:28:50.580Z,9.73
2017-11-15T12:30:17.712Z,9.76
2017-11-15T12:31:45.756Z,9.80
2017-11-15T12:33:12.148Z,9.84
2017-11-15T12:34:39.651Z,9.88
2017-11-15T12:36:07.078Z,9.90
2017-11-15T12:37:34.356Z,9.93
2017-11-15T12:39:01.619Z,9.95
2017-11-15T12:40:28.893Z,9.97
2017-11-15T12:41:56.271Z,9.97
2017-11-15T12:43:23.553Z,9.96
2017-11-15T12:44:51.901Z,9.95
2017-11-15T12:46:18.230Z,9.93
2017-11-15T12:47:45.496Z,9.93
2017-11-15T12:49:12.783Z,9.91
2017-11-15T12:50:41.002Z,9.91
2017-11-15T12:52:07.387Z,9.92
2017-11-15T12:53:35.827Z,9.93
2017-11-15T12:55:02.276Z,9.93
2017-11-15T12:56:29.516Z,9.93
2017-11-15T12:57:56.953Z,9.92
2017-11-15T12:59:24.319Z,9.91
2017-11-15T13:00:52.846Z,9.90
2017-11-15T13:02:19.079Z,9.89
2017-11-15T13:03:46.402Z,9.88
2017-11-15T13:05:13.604Z,9.88
2017-11-15T13:13:48.453Z,10.26
2017-11-15T13:15:14.531Z,10.34
2017-11-15T13:16:41.888Z,10.33
2017-11-15T13:18:09.369Z,10.27
2017-11-15T13:19:36.599Z,10.22
2017-11-15T13:21:03.898Z,10.17
2017-11-15T13:22:31.143Z,10.14
2017-11-15T13:23:58.566Z,10.12
2017-11-15T13:25:25.924Z,10.10
2017-11-15T13:26:53.063Z,10.09
2017-11-15T13:28:21.598Z,10.08
2017-11-15T13:29:47.803Z,10.07
2017-11-15T13:31:15.214Z,10.05
2017-11-15T13:32:42.459Z,10.04
2017-11-15T13:34:09.752Z,10.03
2017-11-15T13:35:38.354Z,10.03
2017-11-15T13:37:04.620Z,10.03
2017-11-15T13:38:32.856Z,10.01
2017-11-15T13:39:59.147Z,9.99
2017-11-15T13:41:26.546Z,9.95
2017-11-15T13:42:53.596Z,9.94
2017-11-15T13:44:20.969Z,9.94
2017-11-15T13:45:49.462Z,9.95
2017-11-15T13:47:15.798Z,9.97
2017-11-15T13:48:42.997Z,9.98
2017-11-15T13:50:10.332Z,9.99
2017-11-15T13:51:37.899Z,10.00
2017-11-15T13:53:05.147Z,10.01
2017-11-15T13:54:32.571Z,10.01
2017-11-15T13:55:59.921Z,10.02
2017-11-15T13:57:28.454Z,10.02
2017-11-15T13:58:54.786Z,10.02
2017-11-15T14:00:23.252Z,10.03
2017-11-15T14:01:49.498Z,10.03
2017-11-15T14:03:16.916Z,10.02
2017-11-15T14:04:44.333Z,10.01
2017-11-15T14:06:11.561Z,10.00
2017-11-15T14:07:38.997Z,9.98
2017-11-15T14:09:06.379Z,9.97
2017-11-15T14:10:34.907Z,9.95
2017-11-15T14:12:02.247Z,9.94
2017-11-15T14:13:28.406Z,9.94
2017-11-15T14:14:55.832Z,9.93
2017-11-15T14:16:22.796Z,9.91
2017-11-15T14:17:50.063Z,9.91
2017-11-15T14:19:17.638Z,9.90
2017-11-15T14:20:45.013Z,9.88
2017-11-15T14:22:12.395Z,9.87
2017-11-15T14:23:39.666Z,9.86
2017-11-15T14:25:06.954Z,9.85
2017-11-15T14:26:34.084Z,9.85
2017-11-15T14:28:01.416Z,9.84
2017-11-15T14:29:28.784Z,9.85
2017-11-15T14:30:56.010Z,9.85
2017-11-15T14:32:23.171Z,9.85
2017-11-15T14:33:50.545Z,9.85
2017-11-15T14:35:17.950Z,9.84
2017-11-15T14:36:45.547Z,9.83
2017-11-15T14:38:13.968Z,9.81
2017-11-15T14:39:41.216Z,9.80
2017-11-15T14:41:07.287Z,9.77
2017-11-15T14:42:34.635Z,9.76
2017-11-15T14:44:01.849Z,9.74
2017-11-15T14:45:29.252Z,9.72
2017-11-15T14:46:56.432Z,9.70
2017-11-15T14:48:23.694Z,9.67
2017-11-15T14:49:50.927Z,9.65
2017-11-15T14:51:18.328Z,9.64
2017-11-15T14:52:46.831Z,9.62
2017-11-15T14:54:13.117Z,9.61
2017-11-15T14:55:41.584Z,9.61
2017-11-15T14:57:07.891Z,9.60
2017-11-15T14:58:35.170Z,9.59
2017-11-15T15:00:02.391Z,9.57
2017-11-15T15:01:30.707Z,9.57
2017-11-15T15:02:57.035Z,9.58
2017-11-15T15:04:24.242Z,9.58
2017-11-15T15:05:52.417Z,9.59
2017-11-15T15:07:19.848Z,9.60
2017-11-15T15:08:46.187Z,9.61
2017-11-15T15:10:13.622Z,9.60
2017-11-15T15:11:40.870Z,9.58
2017-11-15T15:13:08.117Z,9.57
2017-11-15T15:14:35.558Z,9.58
2017-11-15T15:16:03.862Z,9.59
2017-11-15T15:17:30.303Z,9.59
2017-11-15T15:18:58.625Z,9.60
2017-11-15T15:20:25.881Z,9.62
2017-11-15T15:21:52.411Z,9.63
2017-11-15T15:23:20.450Z,9.63
2017-11-15T15:24:47.829Z,9.64
2017-11-15T15:26:14.292Z,9.63
2017-11-15T15:27:41.535Z,9.63
2017-11-15T15:29:08.927Z,9.62
2017-11-15T15:30:36.268Z,9.62
2017-11-15T15:32:03.753Z,9.62
2017-11-15T15:33:31.177Z,9.63
2017-11-15T15:34:59.343Z,9.64
2017-11-15T15:36:25.578Z,9.65
2017-11-15T15:37:53.111Z,9.66
2017-11-15T15:39:20.250Z,9.66
2017-11-15T15:40:47.446Z,9.66
2017-11-15T15:42:14.757Z,9.66
2017-11-15T15:43:43.205Z,9.66
2017-11-15T15:45:10.688Z,9.65
2017-11-15T15:46:36.867Z,9.67
2017-11-15T15:48:04.129Z,9.67
2017-11-15T15:49:31.480Z,9.67
2017-11-15T15:50:59.898Z,9.67
2017-11-15T15:52:27.000Z,9.67
2017-11-15T15:53:52.965Z,9.67
2017-11-15T15:55:20.269Z,9.65
2017-11-15T15:56:47.698Z,9.63
2017-11-15T15:58:15.026Z,9.62
2017-11-15T15:59:42.463Z,9.61
2017-11-15T16:01:10.799Z,9.61
2017-11-15T16:02:37.213Z,9.62
2017-11-15T16:04:04.413Z,9.62
2017-11-15T16:05:32.718Z,9.63
2017-11-15T16:06:59.018Z,9.64
2017-11-15T16:08:26.299Z,9.66
2017-11-15T16:09:53.629Z,9.65
2017-11-15T16:11:21.004Z,9.63
2017-11-15T16:12:48.403Z,9.62
2017-11-15T16:14:15.739Z,9.61
2017-11-15T16:15:43.095Z,9.61
2017-11-15T16:17:10.317Z,9.60
2017-11-15T16:18:37.788Z,9.57
2017-11-15T16:20:05.260Z,9.56
2017-11-15T16:21:32.635Z,9.54
2017-11-15T16:22:59.896Z,9.54
2017-11-15T16:24:28.305Z,9.53
2017-11-15T16:25:54.619Z,9.52
2017-11-15T16:27:22.953Z,9.51
2017-11-15T16:28:49.160Z,9.50
2017-11-15T16:30:16.609Z,9.51
2017-11-15T16:31:43.838Z,9.51
2017-11-15T16:33:11.222Z,9.52
2017-11-15T16:34:39.664Z,9.53
2017-11-15T16:36:05.883Z,9.53
2017-11-15T16:37:33.285Z,9.52
2017-11-15T16:39:00.591Z,9.51
2017-11-15T16:40:27.862Z,9.50
2017-11-15T16:41:55.186Z,9.50
2017-11-15T16:43:22.625Z,9.50
2017-11-15T16:44:50.041Z,9.52
2017-11-15T16:46:17.591Z,9.51
2017-11-15T16:47:44.854Z,9.52
2017-11-15T16:49:12.267Z,9.52
2017-11-15T16:50:39.703Z,9.53
2017-11-15T16:52:06.853Z,9.55
2017-11-15T16:53:34.227Z,9.57
2017-11-15T16:55:01.470Z,9.60
2017-11-15T16:56:28.775Z,9.62
2017-11-15T16:57:56.119Z,9.65
2017-11-15T16:59:23.314Z,9.67
2017-11-15T17:00:50.512Z,9.69
2017-11-15T17:02:17.868Z,9.71
2017-11-15T17:03:45.167Z,9.74
2017-11-15T17:05:13.699Z,9.76
2017-11-15T17:06:39.887Z,9.75
2017-11-15T17:08:07.373Z,9.75
2017-11-15T17:09:34.518Z,9.76
2017-11-15T17:11:01.756Z,9.77
2017-11-15T17:12:29.066Z,9.77
2017-11-15T17:13:57.454Z,9.78
2017-11-15T17:15:23.514Z,9.79
2017-11-15T17:16:50.969Z,9.80
2017-11-15T17:18:18.282Z,9.81
2017-11-15T17:19:45.580Z,9.81
2017-11-15T17:21:13.900Z,9.82
2017-11-15T17:22:40.419Z,9.83
2017-11-15T17:24:07.636Z,9.84
2017-11-15T17:25:34.853Z,9.84
2017-11-15T17:27:03.034Z,9.86
2017-11-15T17:28:29.330Z,9.86
2017-11-15T17:29:56.636Z,9.87
2017-11-15T17:31:23.739Z,9.89
2017-11-15T17:32:51.097Z,9.89
2017-11-15T17:34:18.443Z,9.89
2017-11-15T17:35:45.753Z,9.89
2017-11-15T17:37:13.131Z,9.90
2017-11-15T17:38:40.612Z,9.90
2017-11-15T17:40:09.116Z,9.89
2017-11-15T17:41:36.340Z,9.89
2017-11-15T17:43:02.761Z,9.89
2017-11-15T17:44:30.131Z,9.87
2017-11-15T17:45:57.486Z,9.86
2017-11-15T17:47:24.787Z,9.85
2017-11-15T17:48:52.000Z,9.81
2017-11-15T17:50:19.309Z,9.77
2017-11-15T17:51:46.777Z,9.77
2017-11-15T17:53:13.994Z,9.74
2017-11-15T17:54:41.419Z,9.72
2017-11-15T17:56:08.765Z,9.74
2017-11-15T17:57:37.113Z,9.70
2017-11-15T17:59:04.389Z,9.65
2017-11-15T18:00:30.820Z,9.59
2017-11-15T18:01:58.245Z,9.57
2017-11-15T18:03:25.568Z,9.57
2017-11-15T18:04:52.689Z,9.56
2017-11-15T18:06:20.240Z,9.54
2017-11-15T18:07:47.393Z,9.52
2017-11-15T18:09:14.721Z,9.49
2017-11-15T18:10:42.108Z,9.50
2017-11-15T18:12:09.592Z,9.49
2017-11-15T18:13:36.856Z,9.47
2017-11-15T18:15:05.211Z,9.46
2017-11-15T18:16:31.618Z,9.47
2017-11-15T18:18:00.064Z,9.44
2017-11-15T18:19:26.440Z,9.43
2017-11-15T18:20:53.574Z,9.46
2017-11-15T18:22:20.960Z,9.49
2017-11-15T18:23:48.269Z,9.51
2017-11-15T18:25:15.652Z,9.52
2017-11-15T18:26:43.086Z,9.53
2017-11-15T18:28:10.474Z,9.55
2017-11-15T18:29:37.756Z,9.56
2017-11-15T18:31:06.260Z,9.55
2017-11-15T18:32:32.385Z,9.48
2017-11-15T18:33:59.708Z,9.45
2017-11-15T18:35:26.989Z,9.41
2017-11-15T18:36:55.334Z,9.39
2017-11-15T18:38:21.808Z,9.33
2017-11-15T18:39:49.124Z,9.30
2017-11-15T18:41:17.696Z,9.30
2017-11-15T18:42:44.860Z,9.29
2017-11-15T18:44:11.092Z,9.27
2017-11-15T18:45:38.500Z,9.24
2017-11-15T18:47:05.711Z,9.25
2017-11-15T18:48:32.989Z,9.28
2017-11-15T18:50:00.339Z,9.32
2017-11-15T18:51:28.683Z,9.36
2017-11-15T18:52:54.916Z,9.37
2017-11-15T18:54:22.387Z,9.39
2017-11-15T18:55:49.712Z,9.40
2017-11-15T18:57:17.160Z,9.41
2017-11-15T18:58:44.632Z,9.42
2017-11-15T19:00:12.158Z,9.41
2017-11-15T19:01:40.659Z,9.40
2017-11-15T19:03:07.730Z,9.39
2017-11-15T19:04:35.205Z,9.38
2017-11-15T19:06:01.464Z,9.36
2017-11-15T19:07:28.832Z,9.34
2017-11-15T19:08:56.019Z,9.33
2017-11-15T19:10:23.272Z,9.32
2017-11-15T19:11:50.645Z,9.29
2017-11-15T19:13:18.174Z,9.29
2017-11-15T19:14:46.462Z,9.28
2017-11-15T19:16:12.914Z,9.26
2017-11-15T19:17:40.166Z,9.25
2017-11-15T19:19:07.563Z,9.19
2017-11-15T19:20:35.012Z,9.17
2017-11-15T19:22:02.348Z,9.15
2017-11-15T19:23:30.563Z,9.14
2017-11-15T19:24:56.815Z,9.10
2017-11-15T19:26:24.112Z,9.05
2017-11-15T19:27:51.398Z,8.99
2017-11-15T19:29:18.609Z,8.89
2017-11-15T19:30:47.220Z,8.80
2017-11-15T19:32:14.370Z,8.75
2017-11-15T19:33:40.770Z,8.72
2017-11-15T19:35:08.205Z,8.70
2017-11-15T19:36:35.540Z,8.70
2017-11-15T19:38:03.967Z,8.70
2017-11-15T19:39:31.168Z,8.68
2017-11-15T19:40:57.311Z,8.64
2017-11-15T19:42:24.573Z,8.64
2017-11-15T19:43:51.916Z,8.64
2017-11-15T19:45:19.330Z,8.63
2017-11-15T19:46:46.723Z,8.64
2017-11-15T19:48:14.072Z,8.61
2017-11-15T19:49:41.549Z,8.59
2017-11-15T19:51:08.860Z,8.54
2017-11-15T19:52:36.121Z,8.50
2017-11-15T19:54:04.485Z,8.47
2017-11-15T19:55:30.655Z,8.45
2017-11-15T19:56:57.984Z,8.44
2017-11-15T19:58:25.228Z,8.42
2017-11-15T19:59:53.604Z,8.41
2017-11-15T20:01:19.908Z,8.38
2017-11-15T20:02:47.242Z,8.35
2017-11-15T20:04:14.633Z,8.31
2017-11-15T20:05:43.004Z,8.27
2017-11-15T20:07:10.346Z,8.24
2017-11-15T20:08:36.574Z,8.21
2017-11-15T20:10:04.810Z,8.20
2017-11-15T20:11:31.189Z,8.21
2017-11-15T20:12:59.437Z,8.20
2017-11-15T20:14:26.874Z,8.17
2017-11-15T20:15:53.189Z,8.20
2017-11-15T20:17:20.531Z,8.24
2017-11-15T20:18:48.918Z,8.27
2017-11-15T20:20:15.115Z,8.29
2017-11-15T20:21:42.467Z,8.25
2017-11-15T20:23:09.686Z,8.19
2017-11-15T20:24:36.981Z,8.13
2017-11-15T20:26:04.289Z,8.12
2017-11-15T20:27:32.652Z,8.13
2017-11-15T20:28:58.840Z,8.11
2017-11-15T20:30:27.147Z,8.12
2017-11-15T20:31:53.074Z,8.17
2017-11-15T20:33:20.525Z,8.19
2017-11-15T20:34:47.852Z,8.18
2017-11-15T20:36:15.153Z,8.22
2017-11-15T20:37:42.559Z,8.23
2017-11-15T20:39:09.849Z,8.25
2017-11-15T20:40:38.044Z,8.28
2017-11-15T20:42:04.383Z,8.31
2017-11-15T20:43:31.762Z,8.33
2017-11-15T20:44:59.224Z,8.36
2017-11-15T20:46:26.493Z,8.37
2017-11-15T20:47:53.670Z,8.31
2017-11-15T20:49:22.031Z,8.29
2017-11-15T20:50:49.330Z,8.30
2017-11-15T20:52:16.739Z,8.24
2017-11-15T20:53:44.102Z,8.20
2017-11-15T20:55:10.256Z,8.21
2017-11-15T20:56:37.685Z,8.18
2017-11-15T20:58:06.039Z,8.17
2017-11-15T20:59:32.215Z,8.19
2017-11-15T21:00:59.743Z,8.19
2017-11-15T21:02:26.997Z,8.21
2017-11-15T21:03:54.126Z,8.22
2017-11-15T21:05:21.431Z,8.24
2017-11-15T21:06:48.806Z,8.26
2017-11-15T21:08:16.163Z,8.27
2017-11-15T21:09:43.669Z,8.27
2017-11-15T21:11:11.096Z,8.28
2017-11-15T21:12:39.203Z,8.30
2017-11-15T21:14:05.540Z,8.31
2017-11-15T21:15:32.914Z,8.34
2017-11-15T21:17:00.193Z,8.35
2017-11-15T21:18:27.389Z,8.38
2017-11-15T21:19:54.851Z,8.41
2017-11-15T21:21:23.120Z,8.43
2017-11-15T21:22:49.490Z,8.44
2017-11-15T21:24:16.764Z,8.43
2017-11-15T21:25:43.976Z,8.40
2017-11-15T21:27:11.177Z,8.39
2017-11-15T21:28:38.421Z,8.42
2017-11-15T21:30:05.638Z,8.44
2017-11-15T21:31:32.834Z,8.43
2017-11-15T21:32:59.765Z,8.44
2017-11-15T21:34:27.122Z,8.47
2017-11-15T21:35:54.573Z,8.51
2017-11-15T21:37:21.754Z,8.54
2017-11-15T21:38:48.983Z,8.53
2017-11-15T21:40:16.363Z,8.52
2017-11-15T21:41:43.745Z,8.51
2017-11-15T21:43:10.978Z,8.49
2017-11-15T21:44:39.253Z,8.51
2017-11-15T21:46:05.641Z,8.53
2017-11-15T21:47:32.994Z,8.55
2017-11-15T21:49:01.392Z,8.58
2017-11-15T21:50:27.561Z,8.59
2017-11-15T21:51:55.033Z,8.61
2017-11-15T21:53:22.318Z,8.64
2017-11-15T21:54:49.937Z,8.66
2017-11-15T21:56:17.339Z,8.69
2017-11-15T21:57:44.754Z,8.67
2017-11-15T21:59:13.225Z,8.65
2017-11-15T22:00:39.639Z,8.65
2017-11-15T22:02:06.978Z,8.62
2017-11-15T22:03:34.371Z,8.62
2017-11-15T22:05:02.753Z,8.61
2017-11-15T22:06:28.998Z,8.60
2017-11-15T22:07:56.325Z,8.59
2017-11-15T22:09:24.729Z,8.59
2017-11-15T22:10:50.907Z,8.60
2017-11-15T22:12:18.315Z,8.60
2017-11-15T22:13:45.697Z,8.61
2017-11-15T22:15:12.998Z,8.56
2017-11-15T22:16:41.344Z,8.49
2017-11-15T22:18:07.601Z,8.46
2017-11-15T22:19:35.027Z,8.42
2017-11-15T22:21:02.397Z,8.33
2017-11-15T22:22:29.569Z,8.29
2017-11-15T22:23:57.197Z,8.23
2017-11-15T22:25:24.506Z,8.16
2017-11-15T22:26:52.909Z,8.10
2017-11-15T22:28:19.427Z,8.06
2017-11-15T22:29:47.695Z,8.05